createdAt,value
2019-04-21T00:05:10.730Z,41.89
2019-04-21T00:07:36.499Z,41.80
2019-04-21T00:10:06.320Z,41.79
2019-04-21T00:12:38.908Z,41.89
2019-04-21T00:14:56.822Z,42.05
2019-04-21T00:17:16.347Z,41.98
2019-04-21T00:19:49.913Z,41.95
2019-04-21T00:22:33.156Z,42.03
2019-04-21T00:24:59.751Z,42.05
2019-04-21T00:27:31.003Z,42.03
2019-04-21T00:29:58.225Z,41.98
2019-04-21T00:32:24.549Z,41.93
2019-04-21T00:34:36.320Z,42.11
2019-04-21T00:37:12.180Z,42.03
2019-04-21T00:40:00.151Z,41.98
2019-04-21T00:42:18.386Z,42.13
2019-04-21T00:44:38.130Z,42.31
2019-04-21T00:47:05.489Z,42.40
2019-04-21T00:49:35.852Z,42.58
2019-04-21T00:52:35.320Z,42.61
2019-04-21T00:54:59.229Z,42.73
2019-04-21T00:57:21.468Z,42.79
2019-04-21T00:59:45.438Z,42.88
2019-04-21T01:02:06.251Z,42.85
2019-04-21T01:04:44.896Z,42.78
2019-04-21T01:07:07.254Z,42.66
2019-04-21T01:09:28.504Z,42.60
2019-04-21T01:12:01.442Z,42.62
2019-04-21T01:14:35.855Z,42.64
2019-04-21T01:17:02.315Z,43.00
2019-04-21T01:19:22.302Z,42.99
2019-04-21T01:21:29.940Z,43.13
2019-04-21T01:24:07.859Z,43.24
2019-04-21T01:26:32.575Z,43.38
2019-04-21T01:29:06.672Z,43.50
2019-04-21T01:31:37.657Z,43.47
2019-04-21T01:34:08.723Z,43.54
2019-04-21T01:36:33.340Z,43.88
2019-04-21T01:39:07.962Z,43.40
2019-04-21T01:41:37.313Z,43.27
2019-04-21T01:43:56.890Z,43.43
2019-04-21T01:46:27.029Z,43.42
2019-04-21T01:48:50.471Z,43.72
2019-04-21T01:51:21.007Z,43.63
2019-04-21T01:53:56.470Z,43.61
2019-04-21T01:56:38.698Z,43.70
2019-04-21T01:59:00.861Z,43.54
2019-04-21T02:01:42.563Z,43.60
2019-04-21T02:04:07.229Z,43.61
2019-04-21T02:06:33.169Z,43.60
2019-04-21T02:08:58.076Z,43.55
2019-04-21T02:11:31.256Z,43.46
2019-04-21T02:14:03.907Z,43.41
2019-04-21T02:16:26.434Z,43.65
2019-04-21T02:18:53.076Z,43.44
2019-04-21T02:21:20.365Z,43.47
2019-04-21T02:23:54.605Z,43.46
2019-04-21T02:26:21.812Z,43.52
2019-04-21T02:28:50.516Z,43.50
2019-04-21T02:31:29.120Z,43.47
2019-04-21T02:33:56.242Z,43.44
2019-04-21T02:36:34.526Z,43.39
2019-04-21T02:38:56.159Z,43.46
2019-04-21T02:41:09.549Z,43.51
2019-04-21T02:43:44.914Z,43.52
2019-04-21T02:46:19.587Z,43.41
2019-04-21T02:48:39.307Z,43.44
2019-04-21T02:51:02.989Z,43.49
2019-04-21T02:53:48.139Z,43.44
2019-04-21T02:56:00.735Z,43.44
2019-04-21T03:01:21.221Z,43.60
2019-04-21T03:03:51.329Z,43.43
2019-04-21T03:06:15.417Z,43.41
2019-04-21T03:08:53.957Z,43.51
2019-04-21T03:13:41.756Z,43.66
2019-04-21T03:16:23.326Z,43.34
2019-04-21T03:18:40.098Z,43.34
2019-04-21T03:23:41.120Z,43.44
2019-04-21T03:26:03.375Z,43.69
2019-04-21T03:28:33.251Z,43.36
2019-04-21T03:31:25.100Z,43.42
2019-04-21T03:36:13.007Z,43.45
2019-04-21T03:38:18.955Z,43.49
2019-04-21T03:40:40.925Z,43.47
2019-04-21T03:43:12.209Z,43.46
2019-04-21T03:45:44.502Z,43.62
2019-04-21T03:48:09.695Z,43.52
2019-04-21T03:50:33.078Z,43.52
2019-04-21T03:53:04.662Z,43.41
2019-04-21T04:03:42.111Z,43.36
2019-04-21T04:06:09.615Z,43.38
2019-04-21T04:08:44.708Z,43.58
2019-04-21T04:11:08.295Z,43.72
2019-04-21T04:13:29.142Z,43.57
2019-04-21T04:16:06.129Z,43.61
2019-04-21T04:18:31.834Z,43.60
2019-04-21T04:20:45.501Z,43.62
2019-04-21T04:23:31.542Z,43.96
2019-04-21T04:25:45.627Z,43.62
2019-04-21T04:28:28.723Z,43.54
2019-04-21T04:33:15.469Z,43.72
2019-04-21T04:35:46.141Z,44.03
2019-04-21T04:38:03.347Z,43.78
2019-04-21T04:40:51.353Z,43.85
2019-04-21T04:43:21.250Z,43.67
2019-04-21T04:45:32.423Z,43.71
2019-04-21T04:47:59.194Z,43.59
2019-04-21T04:50:29.981Z,43.61
2019-04-21T04:53:15.700Z,43.60
2019-04-21T04:55:23.608Z,43.65
2019-04-21T04:57:57.754Z,43.58
2019-04-21T05:00:19.554Z,43.79
2019-04-21T05:05:17.309Z,43.76
2019-04-21T05:10:05.881Z,43.78
2019-04-21T05:12:29.291Z,43.88
2019-04-21T05:14:59.391Z,43.74
2019-04-21T05:24:41.920Z,44.01
2019-04-21T05:27:07.478Z,44.16
2019-04-21T05:29:52.580Z,44.00
2019-04-21T05:32:25.997Z,43.88
2019-04-21T05:34:55.708Z,44.43
2019-04-21T05:37:24.705Z,44.16
2019-04-21T05:39:53.679Z,44.07
2019-04-21T05:42:10.609Z,44.25
2019-04-21T05:45:00.144Z,44.19
2019-04-21T05:47:26.790Z,43.94
2019-04-21T05:49:55.657Z,43.83
2019-04-21T05:52:22.569Z,43.74
2019-04-21T05:54:57.335Z,43.71
2019-04-21T05:57:22.255Z,44.23
2019-04-21T05:59:48.859Z,43.92
2019-04-21T06:02:24.246Z,44.04
2019-04-21T06:05:15.776Z,43.65
2019-04-21T06:07:23.136Z,43.75
2019-04-21T06:09:51.398Z,43.83
2019-04-21T06:12:11.717Z,43.65
2019-04-21T06:14:46.535Z,43.72
2019-04-21T06:17:08.111Z,44.24
2019-04-21T06:19:43.740Z,43.97
2019-04-21T06:22:05.769Z,44.01
2019-04-21T06:24:30.009Z,43.98
2019-04-21T06:29:23.999Z,44.03
2019-04-21T06:34:24.358Z,45.17
2019-04-21T06:41:49.018Z,44.75
2019-04-21T06:46:59.409Z,44.63
2019-04-21T06:49:07.012Z,44.09
2019-04-21T06:51:35.759Z,45.18
2019-04-21T06:54:09.446Z,45.93
2019-04-21T06:56:43.881Z,44.35
2019-04-21T06:59:06.044Z,45.50
2019-04-21T07:01:39.260Z,44.66
2019-04-21T07:04:05.942Z,45.54
2019-04-21T07:06:29.472Z,46.40
2019-04-21T07:09:03.132Z,46.73
2019-04-21T07:11:21.752Z,46.19
2019-04-21T07:14:03.709Z,46.65
2019-04-21T07:16:19.452Z,46.53
2019-04-21T07:18:58.618Z,46.82
2019-04-21T07:21:13.863Z,46.99
2019-04-21T07:23:47.262Z,46.94
2019-04-21T07:26:15.374Z,46.29
2019-04-21T07:28:45.984Z,46.71
2019-04-21T07:31:14.042Z,46.95
2019-04-21T07:36:01.323Z,47.11
2019-04-21T07:38:32.015Z,47.09
2019-04-21T07:40:55.517Z,47.28
2019-04-21T07:43:20.452Z,47.09
2019-04-21T07:45:49.427Z,47.21
2019-04-21T07:48:24.676Z,47.17
2019-04-21T07:51:02.129Z,47.22
2019-04-21T07:53:36.776Z,47.28
2019-04-21T07:55:35.342Z,47.40
2019-04-21T07:58:29.012Z,47.49
2019-04-21T08:00:56.363Z,47.53
2019-04-21T08:03:24.753Z,47.39
2019-04-21T08:05:45.791Z,47.47
2019-04-21T08:08:05.199Z,47.53
2019-04-21T08:10:40.795Z,47.48
2019-04-21T08:13:12.290Z,47.52
2019-04-21T08:15:40.053Z,47.50
2019-04-21T08:18:07.770Z,47.56
2019-04-21T08:20:28.492Z,47.50
2019-04-21T08:23:05.565Z,47.63
2019-04-21T08:25:34.889Z,47.66
2019-04-21T08:27:59.778Z,47.68
2019-04-21T08:30:32.305Z,47.74
2019-04-21T08:37:57.407Z,47.70
2019-04-21T08:42:53.174Z,47.80
2019-04-21T08:45:22.569Z,47.90
2019-04-21T08:50:15.195Z,47.85
2019-04-21T08:52:52.214Z,47.84
2019-04-21T08:55:22.499Z,47.48
2019-04-21T08:58:00.769Z,46.77
2019-04-21T09:00:19.793Z,47.13
2019-04-21T09:02:56.288Z,47.64
2019-04-21T09:05:23.518Z,47.56
2019-04-21T09:07:51.264Z,47.07
2019-04-21T09:10:20.512Z,47.68
2019-04-21T09:12:46.736Z,47.86
2019-04-21T09:15:14.167Z,47.96
2019-04-21T09:17:33.033Z,48.02
2019-04-21T09:20:13.920Z,48.01
2019-04-21T09:22:37.913Z,47.95
2019-04-21T09:25:01.571Z,48.09
2019-04-21T09:27:35.648Z,47.98
2019-04-21T09:29:49.462Z,48.02
2019-04-21T09:32:12.494Z,48.00
2019-04-21T09:34:41.996Z,47.94
2019-04-21T09:37:19.105Z,47.86
2019-04-21T09:39:33.435Z,47.83
2019-04-21T09:42:02.494Z,47.66
2019-04-21T09:44:33.403Z,47.50
2019-04-21T09:46:58.560Z,47.42
2019-04-21T09:49:27.147Z,47.25
2019-04-21T09:51:51.010Z,47.14
2019-04-21T09:54:22.877Z,47.02
2019-04-21T09:56:51.061Z,46.94
2019-04-21T09:59:20.705Z,46.94
2019-04-21T10:01:56.000Z,46.77
2019-04-21T10:04:07.986Z,46.63
2019-04-21T10:06:35.000Z,45.38
2019-04-21T10:09:04.142Z,46.19
2019-04-21T10:11:28.892Z,46.23
2019-04-21T10:13:55.147Z,45.93
2019-04-21T10:16:42.795Z,46.32
2019-04-21T10:19:08.919Z,46.65
2019-04-21T10:21:36.028Z,46.70
2019-04-21T10:24:02.190Z,46.81
2019-04-21T10:26:28.626Z,46.88
2019-04-21T10:28:58.621Z,47.04
2019-04-21T10:31:22.778Z,47.06
2019-04-21T10:33:48.879Z,47.12
2019-04-21T10:36:15.202Z,47.09
2019-04-21T10:38:46.448Z,47.12
2019-04-21T10:41:09.630Z,47.20
2019-04-21T10:43:35.752Z,47.14
2019-04-21T10:46:01.801Z,47.13
2019-04-21T10:48:28.730Z,47.09
2019-04-21T10:50:56.918Z,47.04
2019-04-21T10:53:28.987Z,47.12
2019-04-21T10:56:09.616Z,47.09
2019-04-21T10:58:30.196Z,47.06
2019-04-21T11:00:57.998Z,47.04
2019-04-21T11:03:38.349Z,47.11
2019-04-21T11:06:06.542Z,47.10
2019-04-21T11:08:37.924Z,47.14
2019-04-21T11:11:01.628Z,47.17
2019-04-21T11:13:28.361Z,47.16
2019-04-21T11:15:55.162Z,47.18
2019-04-21T11:18:21.911Z,47.22
2019-04-21T11:20:48.927Z,47.29
2019-04-21T11:23:16.355Z,47.27
2019-04-21T11:25:43.815Z,47.34
2019-04-21T11:28:11.118Z,47.37
2019-04-21T11:30:38.012Z,47.40
2019-04-21T11:33:04.137Z,47.37
2019-04-21T11:35:30.910Z,47.39
2019-04-21T11:38:06.145Z,47.42
2019-04-21T11:40:27.686Z,47.37
2019-04-21T11:42:53.842Z,47.37
2019-04-21T11:45:28.351Z,47.34
2019-04-21T11:48:14.457Z,47.27
2019-04-21T11:50:41.346Z,47.29
2019-04-21T11:53:08.387Z,47.29
2019-04-21T11:55:39.764Z,47.36
2019-04-21T11:58:03.461Z,47.33
2019-04-21T12:00:29.668Z,47.32
2019-04-21T12:02:55.717Z,47.36
2019-04-21T12:05:21.780Z,47.37
2019-04-21T12:07:47.735Z,47.40
2019-04-21T12:10:13.627Z,47.39
2019-04-21T12:12:39.537Z,47.40
2019-04-21T12:15:06.083Z,47.44
2019-04-21T12:17:32.105Z,47.42
2019-04-21T12:19:58.990Z,47.51
2019-04-21T12:22:29.848Z,47.45
2019-04-21T12:24:53.281Z,47.45
2019-04-21T12:27:22.271Z,47.42
2019-04-21T12:29:49.354Z,47.43
2019-04-21T12:32:33.753Z,47.41
2019-04-21T12:34:59.904Z,47.42
2019-04-21T12:37:26.862Z,47.39
2019-04-21T12:39:54.675Z,47.43
2019-04-21T12:42:20.872Z,47.49
2019-04-21T12:44:47.551Z,47.53
2019-04-21T12:47:14.159Z,47.51
2019-04-21T12:49:41.335Z,47.55
2019-04-21T12:52:07.425Z,47.56
2019-04-21T12:54:33.680Z,47.51
2019-04-21T12:56:59.747Z,47.55
2019-04-21T12:59:29.129Z,47.60
2019-04-21T13:01:54.829Z,47.58
2019-04-21T13:04:21.827Z,47.60
2019-04-21T13:06:47.830Z,47.63
2019-04-21T13:09:17.915Z,47.68
2019-04-21T13:11:41.510Z,47.69
2019-04-21T13:14:08.254Z,47.71
2019-04-21T13:16:34.432Z,47.73
2019-04-21T13:19:00.490Z,47.76
2019-04-21T13:21:27.771Z,47.83
2019-04-21T13:23:54.761Z,47.86
2019-04-21T13:26:32.010Z,47.91
2019-04-21T13:28:48.548Z,47.83
2019-04-21T13:31:14.538Z,47.87
2019-04-21T13:33:41.920Z,47.90
2019-04-21T13:36:07.930Z,47.91
2019-04-21T13:38:42.524Z,47.95
2019-04-21T13:41:17.782Z,47.83
2019-04-21T13:43:32.968Z,47.84
2019-04-21T13:45:59.603Z,47.76
2019-04-21T13:48:26.450Z,47.66
2019-04-21T13:50:53.466Z,47.66
2019-04-21T13:53:22.779Z,47.53
2019-04-21T13:55:48.871Z,47.53
2019-04-21T13:58:16.662Z,47.57
2019-04-21T14:00:42.923Z,47.56
2019-04-21T14:03:10.271Z,47.47
2019-04-21T14:05:38.126Z,47.45
2019-04-21T14:08:05.080Z,47.49
2019-04-21T14:10:31.625Z,47.55
2019-04-21T14:12:58.380Z,47.58
2019-04-21T14:15:24.471Z,47.60
2019-04-21T14:17:50.908Z,47.64
2019-04-21T14:20:17.255Z,47.58
2019-04-21T14:22:44.237Z,47.60
2019-04-21T14:25:10.315Z,47.62
2019-04-21T14:27:36.394Z,47.62
2019-04-21T14:30:04.904Z,47.59
2019-04-21T14:32:31.832Z,47.60
2019-04-21T14:34:58.741Z,47.55
2019-04-21T14:37:26.471Z,47.60
2019-04-21T14:40:00.464Z,47.67
2019-04-21T14:42:20.326Z,47.62
2019-04-21T14:44:46.960Z,47.53
2019-04-21T14:47:18.827Z,47.56
2019-04-21T14:49:47.099Z,47.73
2019-04-21T14:52:15.059Z,47.66
2019-04-21T14:54:43.033Z,47.63
2019-04-21T14:57:09.294Z,47.65
2019-04-21T14:59:35.341Z,47.71
2019-04-21T15:02:02.164Z,47.67
2019-04-21T15:04:28.361Z,47.71
2019-04-21T15:06:55.048Z,47.75
2019-04-21T15:09:21.192Z,47.75
2019-04-21T15:11:47.722Z,47.76
2019-04-21T15:14:13.846Z,47.68
2019-04-21T15:16:40.806Z,47.68
2019-04-21T15:19:06.786Z,47.71
2019-04-21T15:21:33.433Z,47.68
2019-04-21T15:24:00.436Z,47.71
2019-04-21T15:26:26.538Z,47.72
2019-04-21T15:28:52.915Z,47.71
2019-04-21T15:31:24.185Z,47.69
2019-04-21T15:33:47.385Z,47.76
2019-04-21T15:36:13.453Z,47.73
2019-04-21T15:38:40.142Z,47.66
2019-04-21T15:41:10.062Z,47.64
2019-04-21T15:43:34.022Z,47.63
2019-04-21T15:46:00.639Z,47.68
2019-04-21T15:48:26.947Z,47.69
2019-04-21T15:50:56.688Z,47.69
2019-04-21T15:53:25.668Z,47.75
2019-04-21T15:56:12.999Z,47.66
2019-04-21T15:58:41.115Z,47.63
2019-04-21T16:01:24.849Z,47.68
2019-04-21T16:03:50.927Z,47.73
2019-04-21T16:06:17.382Z,47.67
2019-04-21T16:08:47.609Z,47.68
2019-04-21T16:11:11.445Z,47.69
2019-04-21T16:13:37.429Z,47.66
2019-04-21T16:16:04.307Z,47.70
2019-04-21T16:18:30.478Z,47.73
2019-04-21T16:20:57.658Z,47.76
2019-04-21T16:23:24.507Z,47.78
2019-04-21T16:25:50.876Z,47.81
2019-04-21T16:28:17.313Z,47.80
2019-04-21T16:30:44.642Z,47.83
2019-04-21T16:33:10.687Z,47.82
2019-04-21T16:35:37.773Z,47.83
2019-04-21T16:38:04.187Z,47.89
2019-04-21T16:40:41.550Z,47.91
2019-04-21T16:42:58.371Z,47.89
2019-04-21T16:45:25.263Z,47.91
2019-04-21T16:47:53.744Z,47.94
2019-04-21T16:50:19.892Z,47.96
2019-04-21T16:52:52.157Z,47.98
2019-04-21T16:55:25.010Z,48.04
2019-04-21T16:58:06.795Z,48.07
2019-04-21T17:00:31.438Z,48.11
2019-04-21T17:02:54.713Z,48.15
2019-04-21T17:05:20.476Z,48.15
2019-04-21T17:07:47.103Z,47.99
2019-04-21T17:10:14.724Z,48.00
2019-04-21T17:12:41.707Z,47.96
2019-04-21T17:15:24.334Z,47.98
2019-04-21T17:17:55.935Z,47.94
2019-04-21T17:20:21.022Z,47.91
2019-04-21T17:22:33.581Z,47.91
2019-04-21T17:25:00.340Z,47.89
2019-04-21T17:27:27.182Z,47.93
2019-04-21T17:29:56.642Z,47.96
2019-04-21T17:32:25.037Z,47.99
2019-04-21T17:34:52.042Z,48.02
2019-04-21T17:37:20.642Z,48.04
2019-04-21T17:39:46.893Z,47.91
2019-04-21T17:42:25.473Z,47.99
2019-04-21T17:44:41.261Z,48.08
2019-04-21T17:47:19.213Z,48.11
2019-04-21T17:49:35.371Z,48.09
2019-04-21T17:52:09.796Z,48.08
2019-04-21T17:54:45.611Z,48.16
2019-04-21T17:57:26.523Z,48.20
2019-04-21T18:00:24.038Z,48.15
2019-04-21T18:02:26.371Z,48.07
2019-04-21T18:04:50.989Z,48.06
2019-04-21T18:07:20.636Z,48.12
2019-04-21T18:09:56.560Z,48.13
2019-04-21T18:12:11.871Z,48.12
2019-04-21T18:14:24.488Z,48.13
2019-04-21T18:16:53.097Z,48.05
2019-04-21T18:19:19.405Z,48.04
2019-04-21T18:21:59.185Z,47.97
2019-04-21T18:24:28.026Z,47.56
2019-04-21T18:27:00.360Z,48.05
2019-04-21T18:29:27.620Z,48.01
2019-04-21T18:31:54.608Z,48.01
2019-04-21T18:34:30.294Z,48.05
2019-04-21T18:36:58.814Z,47.94
2019-04-21T18:39:45.396Z,47.82
2019-04-21T18:42:26.508Z,48.07
2019-04-21T18:45:23.884Z,48.01
2019-04-21T18:47:25.698Z,47.99
2019-04-21T18:49:42.676Z,47.83
2019-04-21T18:52:28.003Z,47.03
2019-04-21T18:54:58.327Z,47.96
2019-04-21T18:57:22.572Z,47.33
2019-04-21T18:59:45.169Z,46.31
2019-04-21T19:02:13.473Z,47.22
2019-04-21T19:04:38.749Z,47.66
2019-04-21T19:07:18.161Z,46.96
2019-04-21T19:10:09.872Z,46.40
2019-04-21T19:12:23.159Z,47.32
2019-04-21T19:14:44.713Z,47.42
2019-04-21T19:22:14.053Z,46.55
2019-04-21T19:24:48.475Z,45.64
2019-04-21T19:29:42.518Z,46.03
2019-04-21T19:32:08.418Z,44.89
2019-04-21T19:34:25.756Z,45.01
2019-04-21T19:36:51.308Z,45.83
2019-04-21T19:39:23.332Z,44.27
2019-04-21T19:41:56.043Z,44.95
2019-04-21T19:44:29.338Z,45.19
2019-04-21T19:46:55.489Z,45.11
2019-04-21T19:49:29.920Z,45.16
2019-04-21T19:51:44.021Z,46.26
2019-04-21T19:54:12.618Z,44.82
2019-04-21T19:56:28.017Z,46.51
2019-04-21T19:58:54.976Z,46.87
2019-04-21T20:01:21.493Z,45.93
2019-04-21T20:03:51.229Z,45.66
2019-04-21T20:06:33.098Z,46.66
2019-04-21T20:09:00.986Z,45.76
2019-04-21T20:11:30.869Z,46.14
2019-04-21T20:14:30.340Z,46.58
2019-04-21T20:16:23.156Z,45.78
2019-04-21T20:18:40.679Z,46.57
2019-04-21T20:21:02.212Z,46.20
2019-04-21T20:23:32.718Z,46.11
2019-04-21T20:26:02.302Z,46.68
2019-04-21T20:28:36.946Z,46.33
2019-04-21T20:31:15.523Z,45.80
2019-04-21T20:36:12.272Z,46.19
2019-04-21T20:38:26.430Z,45.86
2019-04-21T20:40:51.014Z,47.19
2019-04-21T20:43:31.014Z,46.37
2019-04-21T20:45:59.284Z,47.37
2019-04-21T20:48:17.964Z,46.45
2019-04-21T20:50:49.243Z,46.18
2019-04-21T20:53:24.937Z,46.75
2019-04-21T20:55:44.178Z,46.47
2019-04-21T20:58:06.751Z,46.59
2019-04-21T21:00:50.777Z,45.93
2019-04-21T21:03:11.995Z,47.01
2019-04-21T21:05:30.509Z,47.20
2019-04-21T21:08:13.680Z,46.53
2019-04-21T21:10:34.713Z,46.45
2019-04-21T21:13:08.828Z,46.65
2019-04-21T21:15:29.168Z,47.14
2019-04-21T21:18:05.795Z,45.97
2019-04-21T21:20:24.346Z,45.31
2019-04-21T21:22:47.824Z,46.42
2019-04-21T21:25:32.498Z,46.88
2019-04-21T21:27:47.018Z,46.27
2019-04-21T21:30:15.788Z,46.88
2019-04-21T21:32:44.927Z,46.04
2019-04-21T21:35:13.173Z,46.20
2019-04-21T21:37:40.980Z,47.37
2019-04-21T21:40:11.361Z,47.27
2019-04-21T21:42:26.459Z,46.88
2019-04-21T21:44:54.602Z,46.24
2019-04-21T21:47:31.393Z,46.04
2019-04-21T21:49:58.170Z,46.36
2019-04-21T21:52:22.408Z,45.40
2019-04-21T21:54:40.008Z,46.29
2019-04-21T21:57:06.082Z,46.27
2019-04-21T21:59:36.481Z,46.17
2019-04-21T22:02:01.408Z,45.11
2019-04-21T22:04:30.735Z,46.65
2019-04-21T22:07:03.783Z,46.71
2019-04-21T22:09:26.160Z,46.74
2019-04-21T22:11:56.259Z,46.42
2019-04-21T22:14:25.921Z,46.18
2019-04-21T22:17:07.810Z,46.46
2019-04-21T22:19:32.625Z,46.65
2019-04-21T22:22:00.964Z,45.69
2019-04-21T22:24:26.814Z,46.66
2019-04-21T22:26:39.340Z,46.63
2019-04-21T22:29:05.595Z,46.66
2019-04-21T22:31:34.153Z,47.00
2019-04-21T22:34:05.431Z,47.03
2019-04-21T22:36:42.714Z,46.45
2019-04-21T22:39:13.327Z,45.49
2019-04-21T22:41:33.739Z,46.16
2019-04-21T22:43:58.951Z,46.39
2019-04-21T22:46:24.429Z,46.52
2019-04-21T22:48:53.079Z,46.19
2019-04-21T22:51:23.987Z,45.83
2019-04-21T22:53:48.835Z,46.66
2019-04-21T22:56:20.565Z,46.19
2019-04-21T22:58:44.022Z,46.04
2019-04-21T23:01:10.934Z,45.63
2019-04-21T23:03:40.105Z,45.70
2019-04-21T23:06:09.775Z,45.92
2019-04-21T23:08:36.925Z,46.37
2019-04-21T23:11:05.002Z,46.75
2019-04-21T23:13:29.306Z,46.30
2019-04-21T23:15:58.753Z,45.63
2019-04-21T23:18:40.006Z,45.80
2019-04-21T23:21:08.431Z,46.58
2019-04-21T23:23:42.722Z,45.72
2019-04-21T23:26:09.175Z,45.11
2019-04-21T23:28:40.390Z,45.73
2019-04-21T23:31:05.609Z,45.54
2019-04-21T23:33:14.287Z,45.96
2019-04-21T23:35:41.807Z,45.74
2019-04-21T23:38:08.613Z,45.28
2019-04-21T23:40:35.089Z,46.59
2019-04-21T23:43:09.532Z,44.93
2019-04-21T23:45:34.038Z,45.09
2019-04-21T23:48:10.749Z,44.87
2019-04-21T23:50:35.196Z,45.24
2019-04-21T23:52:53.318Z,44.91
2019-04-21T23:55:19.402Z,45.24
2019-04-21T23:57:48.375Z,45.17
